createdAt,value
2023-03-14T00:02:16.363Z,8.30
2023-03-14T00:04:48.352Z,8.90
2023-03-14T00:07:20.125Z,8.90
2023-03-14T00:09:51.896Z,8.90
2023-03-14T00:12:23.743Z,9.30
2023-03-14T00:14:55.768Z,9.90
2023-03-14T00:17:27.494Z,9.90
2023-03-14T00:20:05.306Z,9.60
2023-03-14T00:22:37.467Z,9.20
2023-03-14T00:25:11.132Z,9.30
2023-03-14T00:27:42.920Z,9.20
2023-03-14T00:30:15.821Z,9.70
2023-03-14T00:32:47.853Z,9.50
2023-03-14T00:35:19.688Z,9.60
2023-03-14T00:37:51.556Z,10.10
2023-03-14T00:40:23.426Z,10.00
2023-03-14T00:42:55.359Z,7.40
2023-03-14T00:45:27.443Z,9.10
2023-03-14T00:47:59.499Z,7.70
2023-03-14T00:50:31.299Z,9.20
2023-03-14T00:53:03.175Z,7.70
2023-03-14T00:55:35.033Z,9.10
2023-03-14T00:58:07.019Z,9.40
2023-03-14T01:00:39.011Z,8.10
2023-03-14T01:03:12.778Z,7.40
2023-03-14T01:05:44.642Z,5.40
2023-03-14T01:08:17.223Z,8.90
2023-03-14T01:10:49.007Z,7.20
2023-03-14T01:13:21.115Z,6.90
2023-03-14T01:15:52.880Z,8.50
2023-03-14T01:18:25.809Z,9.00
2023-03-14T01:20:57.585Z,6.30
2023-03-14T01:23:29.797Z,9.20
2023-03-14T01:26:01.606Z,6.30
2023-03-14T01:28:33.877Z,6.70
2023-03-14T01:31:08.553Z,6.80
2023-03-14T01:33:41.363Z,6.30
2023-03-14T01:36:14.558Z,7.50
2023-03-14T01:38:46.846Z,5.50
2023-03-14T01:41:20.460Z,6.40
2023-03-14T01:43:52.546Z,8.40
2023-03-14T01:46:28.641Z,6.60
2023-03-14T01:49:11.357Z,6.10
2023-03-14T01:51:47.302Z,6.10
2023-03-14T01:54:23.739Z,8.30
2023-03-14T01:56:58.030Z,6.10
2023-03-14T01:59:30.213Z,6.10
2023-03-14T02:02:02.798Z,5.80
2023-03-14T02:04:36.695Z,6.00
2023-03-14T02:07:12.498Z,6.20
2023-03-14T02:09:45.310Z,5.30
2023-03-14T02:12:19.002Z,7.80
2023-03-14T02:14:51.076Z,4.60
2023-03-14T02:17:23.815Z,6.00
2023-03-14T02:20:06.177Z,7.70
2023-03-14T02:22:38.315Z,6.50
2023-03-14T02:25:13.568Z,5.30
2023-03-14T02:27:45.802Z,7.10
2023-03-14T02:30:19.442Z,5.10
2023-03-14T02:32:54.044Z,7.40
2023-03-14T02:35:28.539Z,4.60
2023-03-14T02:38:04.285Z,5.40
2023-03-14T02:40:36.629Z,5.90
2023-03-14T02:43:08.427Z,5.20
2023-03-14T02:45:43.557Z,6.30
2023-03-14T02:48:23.255Z,5.40
2023-03-14T02:50:58.229Z,5.80
2023-03-14T02:53:31.394Z,4.90
2023-03-14T02:56:04.281Z,4.30
2023-03-14T02:58:36.019Z,5.70
2023-03-14T03:01:09.205Z,7.00
2023-03-14T03:03:41.453Z,4.90
2023-03-14T03:06:14.122Z,4.70
2023-03-14T03:08:45.869Z,5.10
2023-03-14T03:11:18.139Z,4.90
2023-03-14T03:13:49.952Z,5.40
2023-03-14T03:16:22.165Z,5.30
2023-03-14T03:18:53.933Z,6.00
2023-03-14T03:21:26.409Z,5.20
2023-03-14T03:23:58.522Z,5.10
2023-03-14T03:26:30.927Z,4.30
2023-03-14T03:29:02.715Z,5.30
2023-03-14T03:31:35.070Z,5.40
2023-03-14T03:34:06.915Z,5.60
2023-03-14T03:36:38.935Z,6.00
2023-03-14T03:39:11.053Z,5.60
2023-03-14T03:41:43.167Z,4.30
2023-03-14T03:44:14.979Z,5.30
2023-03-14T03:46:47.584Z,4.60
2023-03-14T03:49:19.374Z,5.40
2023-03-14T03:51:51.430Z,4.30
2023-03-14T03:54:23.207Z,4.40
2023-03-14T03:56:55.406Z,3.90
2023-03-14T03:59:27.578Z,3.90
2023-03-14T04:01:59.813Z,4.40
2023-03-14T04:04:31.628Z,3.70
2023-03-14T04:07:04.938Z,4.70
2023-03-14T04:09:36.738Z,3.20
2023-03-14T04:12:09.690Z,4.20
2023-03-14T04:14:42.706Z,4.40
2023-03-14T04:17:14.630Z,4.00
2023-03-14T04:19:46.364Z,4.50
2023-03-14T04:22:18.440Z,3.80
2023-03-14T04:24:50.304Z,3.20
2023-03-14T04:27:22.385Z,4.00
2023-03-14T04:29:54.218Z,4.60
2023-03-14T04:32:26.460Z,4.70
2023-03-14T04:34:58.298Z,3.80
2023-03-14T04:37:30.378Z,3.80
2023-03-14T04:40:02.132Z,4.00
2023-03-14T04:42:34.179Z,4.30
2023-03-14T04:45:07.612Z,3.90
2023-03-14T04:47:40.237Z,4.20
2023-03-14T04:50:13.755Z,3.70
2023-03-14T04:52:46.015Z,4.40
2023-03-14T04:55:17.886Z,4.20
2023-03-14T04:57:50.150Z,3.50
2023-03-14T05:00:22.494Z,3.50
2023-03-14T05:02:55.056Z,4.00
2023-03-14T05:05:26.978Z,3.90
2023-03-14T05:07:59.314Z,3.80
2023-03-14T05:10:31.169Z,4.20
2023-03-14T05:13:03.553Z,3.50
2023-03-14T05:15:35.322Z,4.00
2023-03-14T05:18:07.685Z,3.90
2023-03-14T05:20:39.454Z,5.20
2023-03-14T05:23:11.856Z,4.20
2023-03-14T05:25:44.776Z,4.00
2023-03-14T05:28:17.607Z,3.40
2023-03-14T05:30:49.512Z,4.00
2023-03-14T05:33:21.566Z,3.50
2023-03-14T05:35:53.523Z,4.10
2023-03-14T05:38:25.891Z,3.70
2023-03-14T05:40:57.699Z,4.20
2023-03-14T05:43:29.798Z,4.40
2023-03-14T05:46:01.599Z,4.50
2023-03-14T05:48:33.775Z,3.80
2023-03-14T05:51:05.771Z,4.20
2023-03-14T05:53:37.776Z,4.20
2023-03-14T05:56:11.090Z,4.20
2023-03-14T05:58:42.924Z,3.40
2023-03-14T06:01:14.737Z,4.40
2023-03-14T06:03:46.919Z,3.90
2023-03-14T06:06:18.833Z,4.90
2023-03-14T06:08:51.269Z,3.80
2023-03-14T06:11:23.068Z,4.40
2023-03-14T06:13:55.045Z,4.60
2023-03-14T06:16:26.948Z,4.70
2023-03-14T06:18:58.852Z,4.70
2023-03-14T06:21:30.923Z,5.20
2023-03-14T06:24:03.229Z,5.00
2023-03-14T06:26:35.211Z,4.90
2023-03-14T06:29:07.043Z,4.30
2023-03-14T06:31:38.901Z,5.50
2023-03-14T06:34:11.281Z,4.70
2023-03-14T06:36:43.065Z,5.00
2023-03-14T06:39:15.165Z,5.40
2023-03-14T06:41:47.433Z,6.10
2023-03-14T06:44:19.375Z,4.90
2023-03-14T06:46:52.548Z,4.40
2023-03-14T06:49:24.801Z,5.00
2023-03-14T06:51:56.584Z,5.20
2023-03-14T06:54:28.732Z,5.30
2023-03-14T06:57:00.508Z,5.80
2023-03-14T06:59:32.511Z,5.60
2023-03-14T07:02:04.307Z,5.10
2023-03-14T07:04:36.458Z,6.40
2023-03-14T07:07:08.350Z,7.00
2023-03-14T07:09:40.330Z,4.40
2023-03-14T07:12:12.229Z,4.50
2023-03-14T07:14:44.394Z,4.70
2023-03-14T07:17:16.180Z,6.10
2023-03-14T07:19:48.417Z,6.10
2023-03-14T07:22:20.255Z,5.60
2023-03-14T07:24:52.754Z,4.70
2023-03-14T07:27:24.599Z,5.70
2023-03-14T07:29:56.891Z,6.20
2023-03-14T07:32:28.715Z,5.50
2023-03-14T07:35:00.890Z,6.50
2023-03-14T07:37:32.741Z,4.60
2023-03-14T07:40:08.395Z,5.60
2023-03-14T07:42:40.238Z,5.40
2023-03-14T07:45:13.377Z,6.10
2023-03-14T07:47:45.177Z,5.80
2023-03-14T07:50:17.517Z,5.40
2023-03-14T07:52:49.290Z,5.50
2023-03-14T07:55:21.211Z,5.10
2023-03-14T07:57:53.031Z,8.20
2023-03-14T08:00:25.471Z,5.60
2023-03-14T08:02:57.311Z,5.10
2023-03-14T08:05:29.254Z,4.30
2023-03-14T08:08:01.196Z,4.50
2023-03-14T08:10:33.208Z,4.40
2023-03-14T08:13:05.120Z,4.50
2023-03-14T08:15:38.116Z,3.70
2023-03-14T08:18:10.175Z,4.70
2023-03-14T08:20:42.432Z,4.50
2023-03-14T08:23:14.230Z,4.30
2023-03-14T08:25:46.379Z,4.20
2023-03-14T08:28:18.207Z,4.80
2023-03-14T08:30:50.423Z,4.10
2023-03-14T08:33:22.343Z,4.80
2023-03-14T08:35:56.703Z,4.90
2023-03-14T08:38:28.721Z,4.70
2023-03-14T08:41:01.746Z,4.80
2023-03-14T08:43:33.573Z,4.40
2023-03-14T08:46:06.959Z,4.00
2023-03-14T08:48:38.773Z,4.00
2023-03-14T08:51:13.821Z,4.40
2023-03-14T08:53:45.909Z,3.90
2023-03-14T08:56:17.872Z,4.10
2023-03-14T08:58:49.671Z,4.50
2023-03-14T09:01:25.338Z,4.20
2023-03-14T09:03:57.334Z,4.80
2023-03-14T09:06:29.412Z,4.20
2023-03-14T09:09:01.293Z,6.70
2023-03-14T09:11:33.643Z,5.00
2023-03-14T09:14:05.469Z,5.00
2023-03-14T09:16:38.273Z,4.60
2023-03-14T09:19:10.202Z,4.00
2023-03-14T09:21:42.801Z,4.80
2023-03-14T09:24:14.615Z,4.00
2023-03-14T09:26:46.734Z,4.20
2023-03-14T09:29:18.480Z,4.20
2023-03-14T09:31:50.840Z,4.60
2023-03-14T09:34:22.626Z,4.40
2023-03-14T09:36:54.842Z,4.50
2023-03-14T09:39:26.621Z,4.30
2023-03-14T09:42:01.568Z,4.20
2023-03-14T09:44:35.225Z,4.30
2023-03-14T09:47:09.962Z,4.00
2023-03-14T09:49:43.760Z,4.70
2023-03-14T09:54:51.793Z,4.10
2023-03-14T09:57:28.546Z,4.20
2023-03-14T10:00:06.388Z,3.70
2023-03-14T10:02:39.574Z,4.60
2023-03-14T10:05:18.934Z,3.40
2023-03-14T10:07:53.309Z,2.80
2023-03-14T10:10:26.915Z,3.90
2023-03-14T10:13:07.690Z,3.40
2023-03-14T10:15:40.691Z,5.00
2023-03-14T10:18:16.198Z,3.40
2023-03-14T10:20:49.851Z,3.40
2023-03-14T10:26:19.660Z,3.50
2023-03-14T10:28:55.112Z,3.00
2023-03-14T10:31:28.924Z,4.00
2023-03-14T10:36:36.886Z,3.50
2023-03-14T10:39:28.596Z,3.10
2023-03-14T10:42:07.668Z,3.10
2023-03-14T10:44:41.341Z,2.90
2023-03-14T10:47:21.229Z,3.30
2023-03-14T10:49:53.312Z,4.10
2023-03-14T10:52:45.740Z,3.40
2023-03-14T10:55:19.932Z,3.70
2023-03-14T10:57:52.488Z,3.90
2023-03-14T11:00:26.299Z,3.20
2023-03-14T11:03:13.108Z,3.60
2023-03-14T11:05:51.611Z,4.10
2023-03-14T11:08:29.826Z,3.50
2023-03-14T11:11:13.239Z,4.10
2023-03-14T11:13:53.341Z,4.30
2023-03-14T11:16:29.486Z,3.60
2023-03-14T11:19:11.449Z,3.50
2023-03-14T11:21:48.620Z,3.40
2023-03-14T11:24:39.719Z,3.50
2023-03-14T11:27:18.300Z,3.30
2023-03-14T11:29:57.688Z,3.30
2023-03-14T11:32:39.275Z,3.70
2023-03-14T11:35:22.660Z,3.20
2023-03-14T11:37:58.206Z,3.50
2023-03-14T11:40:30.835Z,3.70
2023-03-14T11:43:08.703Z,3.60
2023-03-14T11:45:42.083Z,4.20
2023-03-14T11:48:32.129Z,3.90
2023-03-14T11:51:06.980Z,3.80
2023-03-14T11:53:49.670Z,2.70
2023-03-14T11:56:25.283Z,3.80
2023-03-14T11:59:01.515Z,4.80
2023-03-14T12:01:42.698Z,4.00
2023-03-14T12:04:18.885Z,4.20
2023-03-14T12:06:53.021Z,4.00
2023-03-14T12:09:25.871Z,4.90
2023-03-14T12:11:59.260Z,4.40
2023-03-14T12:14:32.848Z,5.20
2023-03-14T12:17:09.002Z,5.40
2023-03-14T12:19:42.220Z,5.20
2023-03-14T12:22:27.325Z,6.40
2023-03-14T12:25:05.670Z,5.20
2023-03-14T12:28:13.185Z,4.70
2023-03-14T12:30:45.844Z,4.70
2023-03-14T12:33:32.957Z,4.60
2023-03-14T12:36:07.657Z,4.70
2023-03-14T12:38:50.605Z,5.70
2023-03-14T12:41:25.177Z,5.50
2023-03-14T12:43:56.964Z,5.60
2023-03-14T12:46:30.565Z,4.90
2023-03-14T12:49:09.629Z,5.00
2023-03-14T12:51:45.280Z,6.50
2023-03-14T12:54:41.069Z,5.80
2023-03-14T12:57:27.939Z,5.20
2023-03-14T13:00:01.271Z,5.80
2023-03-14T13:02:42.008Z,5.70
2023-03-14T13:05:17.134Z,5.80
2023-03-14T13:08:11.732Z,5.80
2023-03-14T13:10:47.598Z,6.10
2023-03-14T13:13:23.745Z,6.70
2023-03-14T13:16:01.306Z,5.70
2023-03-14T13:18:38.702Z,5.30
2023-03-14T13:21:16.180Z,6.00
2023-03-14T13:24:01.010Z,6.80
2023-03-14T13:26:39.961Z,5.90
2023-03-14T13:29:19.784Z,6.10
2023-03-14T13:31:53.483Z,6.00
2023-03-14T13:34:26.735Z,6.60
2023-03-14T13:36:58.842Z,5.90
2023-03-14T13:39:34.088Z,5.00
2023-03-14T13:42:06.203Z,6.60
2023-03-14T13:44:39.503Z,6.00
2023-03-14T13:47:15.756Z,6.00
2023-03-14T13:49:47.960Z,6.60
2023-03-14T13:52:34.530Z,6.60
2023-03-14T13:55:15.398Z,6.60
2023-03-14T13:57:55.564Z,6.30
2023-03-14T14:00:29.220Z,6.50
2023-03-14T14:03:02.597Z,7.10
2023-03-14T14:05:38.667Z,7.20
2023-03-14T14:08:12.411Z,7.30
2023-03-14T14:10:44.675Z,7.30
2023-03-14T14:13:20.181Z,7.30
2023-03-14T14:15:54.143Z,6.40
2023-03-14T14:18:27.819Z,7.30
2023-03-14T14:21:00.294Z,7.40
2023-03-14T14:23:32.895Z,6.90
2023-03-14T14:26:08.016Z,7.70
2023-03-14T14:28:42.331Z,8.30
2023-03-14T14:31:26.482Z,7.10
2023-03-14T14:34:00.691Z,7.50
2023-03-14T14:39:07.863Z,7.50
2023-03-14T14:41:43.711Z,8.20
2023-03-14T14:44:18.691Z,7.80
2023-03-14T14:46:50.880Z,8.10
2023-03-14T14:49:23.343Z,7.60
2023-03-14T14:52:02.645Z,6.90
2023-03-14T14:54:39.562Z,7.40
2023-03-14T14:57:21.741Z,7.20
2023-03-14T14:59:56.755Z,5.90
2023-03-14T15:02:33.653Z,6.80
2023-03-14T15:05:05.773Z,6.60
2023-03-14T15:07:38.061Z,7.40
2023-03-14T15:10:14.036Z,6.70
2023-03-14T15:12:46.350Z,6.80
2023-03-14T15:15:19.291Z,6.80
2023-03-14T15:17:51.498Z,6.90
2023-03-14T15:20:24.790Z,7.10
2023-03-14T15:22:56.888Z,7.20
2023-03-14T15:25:47.728Z,6.70
2023-03-14T15:28:22.891Z,7.60
2023-03-14T15:30:56.488Z,7.50
2023-03-14T15:33:30.148Z,7.20
2023-03-14T15:36:02.971Z,7.50
2023-03-14T15:38:35.141Z,7.70
2023-03-14T15:41:07.072Z,8.10
2023-03-14T15:43:39.538Z,7.90
2023-03-14T15:46:13.375Z,7.40
2023-03-14T15:48:45.398Z,8.40
2023-03-14T15:51:17.573Z,7.90
2023-03-14T15:53:49.942Z,7.80
2023-03-14T15:56:25.133Z,7.50
2023-03-14T15:58:57.723Z,7.30
2023-03-14T16:01:29.696Z,8.10
2023-03-14T16:04:03.663Z,8.80
2023-03-14T16:06:36.504Z,8.30
2023-03-14T16:09:08.649Z,9.10
2023-03-14T16:11:40.468Z,8.50
2023-03-14T16:14:12.455Z,8.70
2023-03-14T16:16:44.266Z,9.30
2023-03-14T16:19:16.436Z,8.80
2023-03-14T16:21:49.172Z,9.30
2023-03-14T16:24:22.779Z,9.00
2023-03-14T16:26:54.581Z,9.20
2023-03-14T16:29:27.280Z,8.90
2023-03-14T16:31:59.137Z,8.80
2023-03-14T16:34:31.807Z,9.80
2023-03-14T16:37:03.609Z,8.90
2023-03-14T16:42:27.771Z,9.80
2023-03-14T16:45:00.052Z,10.10
2023-03-14T16:47:31.841Z,9.00
2023-03-14T16:50:04.373Z,9.10
2023-03-14T16:52:36.149Z,10.30
2023-03-14T16:55:09.177Z,9.60
2023-03-14T16:57:40.932Z,9.10
2023-03-14T17:00:15.684Z,9.60
2023-03-14T17:02:47.514Z,9.40
2023-03-14T17:05:21.187Z,10.20
2023-03-14T17:10:24.433Z,11.90
2023-03-14T17:12:56.221Z,11.50
2023-03-14T17:15:28.282Z,11.60
2023-03-14T17:18:00.112Z,11.60
2023-03-14T17:20:32.400Z,11.90
2023-03-14T17:23:04.559Z,12.90
2023-03-14T17:25:38.903Z,13.10
2023-03-14T17:28:11.125Z,13.20
2023-03-14T17:30:43.635Z,12.60
2023-03-14T17:33:15.588Z,13.30
2023-03-14T17:35:48.140Z,12.90
2023-03-14T17:38:19.982Z,13.30
2023-03-14T17:40:52.450Z,12.30
2023-03-14T17:43:24.242Z,12.50
2023-03-14T17:46:01.593Z,12.90
2023-03-14T17:48:33.437Z,12.90
2023-03-14T17:51:05.883Z,11.90
2023-03-14T17:53:37.996Z,12.70
2023-03-14T17:56:12.008Z,12.30
2023-03-14T17:58:44.319Z,11.50
2023-03-14T18:01:18.138Z,11.10
2023-03-14T18:03:50.206Z,11.70
2023-03-14T18:06:22.741Z,10.20
2023-03-14T18:08:56.554Z,11.10
2023-03-14T18:11:29.215Z,10.80
2023-03-14T18:14:04.809Z,11.60
2023-03-14T18:16:37.288Z,13.10
2023-03-14T18:19:09.107Z,12.20
2023-03-14T18:21:41.595Z,11.00
2023-03-14T18:24:13.614Z,11.40
2023-03-14T18:26:45.785Z,11.30
2023-03-14T18:29:17.607Z,13.30
2023-03-14T18:31:49.532Z,12.60
2023-03-14T18:34:21.672Z,13.10
2023-03-14T18:36:53.778Z,11.90
2023-03-14T18:39:25.586Z,11.00
2023-03-14T18:41:57.510Z,10.90
2023-03-14T18:44:29.397Z,11.10
2023-03-14T18:47:01.806Z,11.00
2023-03-14T18:49:35.002Z,10.50
2023-03-14T18:52:08.675Z,10.30
2023-03-14T18:54:41.411Z,10.30
2023-03-14T18:57:13.424Z,10.10
2023-03-14T18:59:45.330Z,10.40
2023-03-14T19:02:17.374Z,10.20
2023-03-14T19:04:49.207Z,11.20
2023-03-14T19:07:23.789Z,9.90
2023-03-14T19:09:55.639Z,10.20
2023-03-14T19:12:28.643Z,11.20
2023-03-14T19:15:00.442Z,10.10
2023-03-14T19:17:33.688Z,10.70
2023-03-14T19:20:06.088Z,10.20
2023-03-14T19:22:38.587Z,10.60
2023-03-14T19:25:12.270Z,9.70
2023-03-14T19:27:44.177Z,9.40
2023-03-14T19:30:16.449Z,9.60
2023-03-14T19:32:48.313Z,10.30
2023-03-14T19:35:20.371Z,9.30
2023-03-14T19:37:52.361Z,8.60
2023-03-14T19:40:24.093Z,13.10
2023-03-14T19:42:56.200Z,11.30
2023-03-14T19:45:32.688Z,11.80
2023-03-14T19:48:06.976Z,9.90
2023-03-14T19:50:39.164Z,9.40
2023-03-14T19:53:12.286Z,9.50
2023-03-14T19:55:46.797Z,10.70
2023-03-14T19:58:19.153Z,10.00
2023-03-14T20:00:51.698Z,11.70
2023-03-14T20:03:24.760Z,11.70
2023-03-14T20:05:56.980Z,11.70
2023-03-14T20:08:29.664Z,11.90
2023-03-14T20:11:01.513Z,12.50
2023-03-14T20:13:33.790Z,11.00
2023-03-14T20:16:10.483Z,10.80
2023-03-14T20:18:42.664Z,10.70
2023-03-14T20:21:15.218Z,10.30
2023-03-14T20:23:47.101Z,10.70
2023-03-14T20:26:18.847Z,11.10
2023-03-14T20:28:50.702Z,10.20
2023-03-14T20:31:22.609Z,10.40
2023-03-14T20:33:54.913Z,10.90
2023-03-14T20:36:26.767Z,10.80
2023-03-14T20:38:58.764Z,11.10
2023-03-14T20:41:30.680Z,10.10
2023-03-14T20:44:02.710Z,11.30
2023-03-14T20:46:34.543Z,12.00
2023-03-14T20:49:07.033Z,11.30
2023-03-14T20:51:38.913Z,11.20
2023-03-14T20:54:14.297Z,11.30
2023-03-14T20:56:46.455Z,12.10
2023-03-14T20:59:18.335Z,13.20
2023-03-14T21:04:41.365Z,9.00
2023-03-14T21:07:13.434Z,12.20
2023-03-14T21:09:45.768Z,11.60
2023-03-14T21:12:17.563Z,12.60
2023-03-14T21:14:49.553Z,12.20
2023-03-14T21:17:21.377Z,12.80
2023-03-14T21:19:58.649Z,10.20
2023-03-14T21:22:30.545Z,13.20
2023-03-14T21:25:02.990Z,15.30
2023-03-14T21:27:37.947Z,29.70
2023-03-14T21:30:12.753Z,14.90
2023-03-14T21:32:45.311Z,10.90
2023-03-14T21:35:17.664Z,12.40
2023-03-14T21:37:49.448Z,10.00
2023-03-14T21:40:22.650Z,11.40
2023-03-14T21:42:54.574Z,9.70
2023-03-14T21:45:28.632Z,13.60
2023-03-14T21:48:02.660Z,9.60
2023-03-14T21:50:34.982Z,13.40
2023-03-14T21:53:06.803Z,8.90
2023-03-14T21:55:43.627Z,14.90
2023-03-14T21:58:15.818Z,9.90
2023-03-14T22:00:49.622Z,8.60
2023-03-14T22:03:23.605Z,14.00
2023-03-14T22:05:55.675Z,11.30
2023-03-14T22:08:27.586Z,9.40
2023-03-14T22:10:59.928Z,13.70
2023-03-14T22:13:31.806Z,10.20
2023-03-14T22:16:04.231Z,10.10
2023-03-14T22:18:36.136Z,10.90
2023-03-14T22:21:08.474Z,12.60
2023-03-14T22:23:40.423Z,9.40
2023-03-14T22:26:12.458Z,13.30
2023-03-14T22:28:44.314Z,8.40
2023-03-14T22:31:16.424Z,9.90
2023-03-14T22:33:48.280Z,8.80
2023-03-14T22:36:20.298Z,12.70
2023-03-14T22:38:52.149Z,13.00
2023-03-14T22:41:24.513Z,13.30
2023-03-14T22:43:57.528Z,9.10
2023-03-14T22:46:29.862Z,13.00
2023-03-14T22:49:02.565Z,7.50
2023-03-14T22:51:35.049Z,9.30
2023-03-14T22:54:06.960Z,12.40
2023-03-14T22:56:38.827Z,11.60
2023-03-14T22:59:14.120Z,12.10
2023-03-14T23:01:46.990Z,11.60
2023-03-14T23:04:18.757Z,11.50
2023-03-14T23:06:50.811Z,9.20
2023-03-14T23:09:22.642Z,11.80
2023-03-14T23:11:55.055Z,11.50
2023-03-14T23:14:26.903Z,8.50
2023-03-14T23:16:59.064Z,9.40
2023-03-14T23:19:30.910Z,11.20
2023-03-14T23:22:02.830Z,10.80
2023-03-14T23:24:34.508Z,10.00
2023-03-14T23:27:06.641Z,11.50
2023-03-14T23:29:38.440Z,10.70
2023-03-14T23:32:10.642Z,10.80
2023-03-14T23:34:43.581Z,8.60
2023-03-14T23:37:16.059Z,10.70
2023-03-14T23:39:48.520Z,12.60
2023-03-14T23:42:20.752Z,11.10
2023-03-14T23:44:54.424Z,9.00
2023-03-14T23:47:26.434Z,7.40
2023-03-14T23:49:58.189Z,11.60
2023-03-14T23:52:30.393Z,7.70
2023-03-14T23:55:02.182Z,11.90
2023-03-14T23:57:34.144Z,11.10
